Shelbina, Missouri
Current Conditions -  °F | °C
As of 8:35 AM on Monday 26 Jan 2015 (Local Time) from KHAE Reporting Station
Overcast Overcast  
Wind Chill: -4°   Ceiling: 2000
Heat Index: -1°   Visibility: 10mi
Dew Point: -2°   Wind: 6mph
Humidity: 93%   Direction: 190°S
Pressure: 30.01"   Gusts: NA
Location:  39.69°N, 92.04°W
Report Text: KHAE 261435Z AUTO 19005KT 10SM OVC020 M01/M02 A3001 RMK AO2
Loading
Personal Weather Stations






























Interactive Weather Map New forecast layout! Learn more

10-Day Weather Forecast

Advertisements
Track Severe Weather on mobile